sensor_id;sensor_type;location;lat;lon;timestamp;pressure;altitude;pressure_sealevel;temperature;humidity
60087;BME280;45960;53.630;55.972;2024-01-30T00:00:35;101028.66;;;-3.90;66.17
60087;BME280;45960;53.630;55.972;2024-01-30T00:01:36;101031.31;;;-3.89;66.12
60087;BME280;45960;53.630;55.972;2024-01-30T00:02:37;101031.28;;;-3.87;65.94
60087;BME280;45960;53.630;55.972;2024-01-30T00:03:38;101030.47;;;-3.83;66.03
60087;BME280;45960;53.630;55.972;2024-01-30T00:04:39;101032.22;;;-3.80;65.87
60087;BME280;45960;53.630;55.972;2024-01-30T00:05:40;101029.59;;;-3.80;65.73
60087;BME280;45960;53.630;55.972;2024-01-30T00:06:41;101026.13;;;-3.79;65.73
60087;BME280;45960;53.630;55.972;2024-01-30T00:07:42;101029.63;;;-3.77;65.77
60087;BME280;45960;53.630;55.972;2024-01-30T00:08:43;101026.13;;;-3.76;65.61
60087;BME280;45960;53.630;55.972;2024-01-30T00:09:47;101020.03;;;-3.77;65.75
60087;BME280;45960;53.630;55.972;2024-01-30T00:10:50;101020.91;;;-3.76;65.72
60087;BME280;45960;53.630;55.972;2024-01-30T00:11:52;101024.41;;;-3.77;65.72
60087;BME280;45960;53.630;55.972;2024-01-30T00:12:52;101015.69;;;-3.76;65.76
60087;BME280;45960;53.630;55.972;2024-01-30T00:13:53;101019.19;;;-3.77;65.90
60087;BME280;45960;53.630;55.972;2024-01-30T00:14:57;101019.16;;;-3.80;65.93
60087;BME280;45960;53.630;55.972;2024-01-30T00:15:58;101026.97;;;-3.82;65.92
60087;BME280;45960;53.630;55.972;2024-01-30T00:16:59;101020.88;;;-3.83;66.15
60087;BME280;45960;53.630;55.972;2024-01-30T00:18:00;101019.16;;;-3.84;66.04
60087;BME280;45960;53.630;55.972;2024-01-30T00:19:02;101019.16;;;-3.84;66.03
60087;BME280;45960;53.630;55.972;2024-01-30T00:20:03;101012.16;;;-3.85;65.95
60087;BME280;45960;53.630;55.972;2024-01-30T00:21:06;101013.88;;;-3.90;65.84
60087;BME280;45960;53.630;55.972;2024-01-30T00:22:07;101013.00;;;-3.93;66.08
60087;BME280;45960;53.630;55.972;2024-01-30T00:23:08;101012.13;;;-3.91;66.26
60087;BME280;45960;53.630;55.972;2024-01-30T00:24:09;101015.63;;;-3.89;66.12
60087;BME280;45960;53.630;55.972;2024-01-30T00:25:10;101013.94;;;-3.84;66.37
60087;BME280;45960;53.630;55.972;2024-01-30T00:26:11;101009.59;;;-3.80;65.97
60087;BME280;45960;53.630;55.972;2024-01-30T00:27:12;101010.47;;;-3.79;65.89
60087;BME280;45960;53.630;55.972;2024-01-30T00:28:13;101006.97;;;-3.82;66.07
60087;BME280;45960;53.630;55.972;2024-01-30T00:29:14;100999.13;;;-3.86;66.07
60087;BME280;45960;53.630;55.972;2024-01-30T00:30:20;101012.16;;;-3.88;66.21
60087;BME280;45960;53.630;55.972;2024-01-30T00:31:21;101001.69;;;-3.91;66.04
60087;BME280;45960;53.630;55.972;2024-01-30T00:32:23;101002.56;;;-3.90;66.27
60087;BME280;45960;53.630;55.972;2024-01-30T00:33:24;101001.69;;;-3.91;66.19
60087;BME280;45960;53.630;55.972;2024-01-30T00:34:25;101003.41;;;-3.93;66.37
60087;BME280;45960;53.630;55.972;2024-01-30T00:35:26;100999.94;;;-3.95;66.24
60087;BME280;45960;53.630;55.972;2024-01-30T00:36:27;101001.66;;;-3.97;66.33
60087;BME280;45960;53.630;55.972;2024-01-30T00:37:30;101008.63;;;-3.96;66.47
60087;BME280;45960;53.630;55.972;2024-01-30T00:38:32;100995.56;;;-3.97;66.68
60087;BME280;45960;53.630;55.972;2024-01-30T00:39:33;100999.94;;;-3.95;66.75
60087;BME280;45960;53.630;55.972;2024-01-30T00:40:34;100999.97;;;-3.92;66.61
60087;BME280;45960;53.630;55.972;2024-01-30T00:41:35;100998.22;;;-3.90;66.62
60087;BME280;45960;53.630;55.972;2024-01-30T00:42:36;100988.63;;;-3.92;66.49
60087;BME280;45960;53.630;55.972;2024-01-30T00:43:37;100993.00;;;-3.90;66.55
60087;BME280;45960;53.630;55.972;2024-01-30T00:44:38;100982.53;;;-3.93;66.72
60087;BME280;45960;53.630;55.972;2024-01-30T00:45:39;100991.22;;;-3.92;66.71
60087;BME280;45960;53.630;55.972;2024-01-30T00:46:40;100970.31;;;-4.03;66.82
60087;BME280;45960;53.630;55.972;2024-01-30T00:47:42;100986.03;;;-3.94;66.71
60087;BME280;45960;53.630;55.972;2024-01-30T00:48:43;100986.03;;;-3.94;66.94
60087;BME280;45960;53.630;55.972;2024-01-30T00:49:44;100992.97;;;-3.96;66.84
60087;BME280;45960;53.630;55.972;2024-01-30T00:50:45;100951.06;;;-4.17;66.94
60087;BME280;45960;53.630;55.972;2024-01-30T00:51:46;100989.44;;;-4.01;66.85
60087;BME280;45960;53.630;55.972;2024-01-30T00:52:47;100985.09;;;-4.05;67.03
60087;BME280;45960;53.630;55.972;2024-01-30T00:53:48;100984.22;;;-4.04;67.12
60087;BME280;45960;53.630;55.972;2024-01-30T00:54:49;100978.16;;;-4.03;67.34
60087;BME280;45960;53.630;55.972;2024-01-30T00:55:50;100984.22;;;-4.01;67.32
60087;BME280;45960;53.630;55.972;2024-01-30T00:56:51;100972.06;;;-3.99;67.13
60087;BME280;45960;53.630;55.972;2024-01-30T00:57:52;100977.28;;;-3.96;67.26
60087;BME280;45960;53.630;55.972;2024-01-30T00:58:53;100977.28;;;-3.96;67.03
60087;BME280;45960;53.630;55.972;2024-01-30T00:59:53;100974.69;;;-4.00;67.18
60087;BME280;45960;53.630;55.972;2024-01-30T01:00:54;100978.16;;;-3.98;67.36
60087;BME280;45960;53.630;55.972;2024-01-30T01:01:55;100982.53;;;-3.93;67.28
60087;BME280;45960;53.630;55.972;2024-01-30T01:02:56;100969.50;;;-3.87;67.31
60087;BME280;45960;53.630;55.972;2024-01-30T01:03:57;100971.28;;;-3.79;67.02
60087;BME280;45960;53.630;55.972;2024-01-30T01:04:59;100965.19;;;-3.75;67.09
60087;BME280;45960;53.630;55.972;2024-01-30T01:05:59;100961.75;;;-3.68;66.94
60087;BME280;45960;53.630;55.972;2024-01-30T01:07:01;100965.25;;;-3.66;66.77
60087;BME280;45960;53.630;55.972;2024-01-30T01:08:01;100958.28;;;-3.67;66.77
60087;BME280;45960;53.630;55.972;2024-01-30T01:09:03;100931.19;;;-3.94;66.47
60087;BME280;45960;53.630;55.972;2024-01-30T01:10:04;100962.56;;;-3.82;66.70
60087;BME280;45960;53.630;55.972;2024-01-30T01:11:06;100961.72;;;-3.84;66.87
60087;BME280;45960;53.630;55.972;2024-01-30T01:12:06;100959.94;;;-3.85;66.82
60087;BME280;45960;53.630;55.972;2024-01-30T01:13:08;100954.72;;;-3.85;66.97
60087;BME280;45960;53.630;55.972;2024-01-30T01:14:09;100951.28;;;-3.80;67.16
60087;BME280;45960;53.630;55.972;2024-01-30T01:15:10;100951.28;;;-3.80;67.17
60087;BME280;45960;53.630;55.972;2024-01-30T01:16:11;100964.34;;;-3.73;67.02
60087;BME280;45960;53.630;55.972;2024-01-30T01:17:12;100959.97;;;-3.75;66.83
60087;BME280;45960;53.630;55.972;2024-01-30T01:18:13;100953.00;;;-3.83;66.97
60087;BME280;45960;53.630;55.972;2024-01-30T01:19:14;100950.38;;;-3.81;66.76
60087;BME280;45960;53.630;55.972;2024-01-30T01:20:15;100954.75;;;-3.78;67.07
60087;BME280;45960;53.630;55.972;2024-01-30T01:21:16;100949.53;;;-3.78;66.80
60087;BME280;45960;53.630;55.972;2024-01-30T01:22:17;100946.06;;;-3.74;66.84
60087;BME280;45960;53.630;55.972;2024-01-30T01:23:19;100944.38;;;-3.69;66.64
60087;BME280;45960;53.630;55.972;2024-01-30T01:24:20;100947.81;;;-3.67;66.51
60087;BME280;45960;53.630;55.972;2024-01-30T01:25:21;100942.59;;;-3.70;66.53
60087;BME280;45960;53.630;55.972;2024-01-30T01:26:22;100938.25;;;-3.71;66.54
60087;BME280;45960;53.630;55.972;2024-01-30T01:27:23;100940.88;;;-3.71;66.82
60087;BME280;45960;53.630;55.972;2024-01-30T01:28:24;100940.88;;;-3.68;66.55
60087;BME280;45960;53.630;55.972;2024-01-30T01:29:25;100940.00;;;-3.64;66.52
60087;BME280;45960;53.630;55.972;2024-01-30T01:30:29;100936.53;;;-3.62;66.49
60087;BME280;45960;53.630;55.972;2024-01-30T01:31:31;100934.81;;;-3.60;66.34
60087;BME280;45960;53.630;55.972;2024-01-30T01:32:32;100933.06;;;-3.64;66.19
60087;BME280;45960;53.630;55.972;2024-01-30T01:33:33;100933.91;;;-3.66;66.08
60087;BME280;45960;53.630;55.972;2024-01-30T01:34:34;100937.38;;;-3.67;66.26
60087;BME280;45960;53.630;55.972;2024-01-30T01:35:35;100925.19;;;-3.68;66.46
60087;BME280;45960;53.630;55.972;2024-01-30T01:36:36;100925.19;;;-3.68;66.41
60087;BME280;45960;53.630;55.972;2024-01-30T01:37:37;100925.22;;;-3.65;66.34
60087;BME280;45960;53.630;55.972;2024-01-30T01:38:38;100923.47;;;-3.66;66.29
60087;BME280;45960;53.630;55.972;2024-01-30T01:39:39;100924.34;;;-3.64;66.39
60087;BME280;45960;53.630;55.972;2024-01-30T01:40:40;100926.06;;;-3.65;66.35
60087;BME280;45960;53.630;55.972;2024-01-30T01:41:41;100920.88;;;-3.63;66.34
60087;BME280;45960;53.630;55.972;2024-01-30T01:42:42;100915.63;;;-3.62;66.26
60087;BME280;45960;53.630;55.972;2024-01-30T01:43:43;100913.03;;;-3.58;66.18
60087;BME280;45960;53.630;55.972;2024-01-30T01:44:44;100909.56;;;-3.56;66.33
60087;BME280;45960;53.630;55.972;2024-01-30T01:45:46;100915.63;;;-3.58;66.31
60087;BME280;45960;53.630;55.972;2024-01-30T01:46:47;100920.00;;;-3.62;66.27
60087;BME280;45960;53.630;55.972;2024-01-30T01:47:51;100913.88;;;-3.67;66.20
60087;BME280;45960;53.630;55.972;2024-01-30T01:48:52;100919.97;;;-3.68;66.49
60087;BME280;45960;53.630;55.972;2024-01-30T01:49:54;100911.25;;;-3.75;66.41
60087;BME280;45960;53.630;55.972;2024-01-30T01:50:55;100905.13;;;-3.78;66.39
60087;BME280;45960;53.630;55.972;2024-01-30T01:51:56;100899.91;;;-3.82;66.60
60087;BME280;45960;53.630;55.972;2024-01-30T01:52:58;100907.72;;;-3.85;66.78
60087;BME280;45960;53.630;55.972;2024-01-30T01:54:04;100911.22;;;-3.83;67.04
60087;BME280;45960;53.630;55.972;2024-01-30T01:55:08;100906.00;;;-3.79;67.05
60087;BME280;45960;53.630;55.972;2024-01-30T01:56:13;100904.28;;;-3.74;66.94
60087;BME280;45960;53.630;55.972;2024-01-30T01:57:14;100907.81;;;-3.69;66.80
60087;BME280;45960;53.630;55.972;2024-01-30T01:58:15;100906.06;;;-3.66;66.98
60087;BME280;45960;53.630;55.972;2024-01-30T01:59:17;100902.59;;;-3.63;66.87
60087;BME280;45960;53.630;55.972;2024-01-30T02:00:19;100887.75;;;-3.67;66.66
60087;BME280;45960;53.630;55.972;2024-01-30T02:01:21;100900.00;;;-3.54;66.45
60087;BME280;45960;53.630;55.972;2024-01-30T02:02:24;100897.38;;;-3.51;66.41
60087;BME280;45960;53.630;55.972;2024-01-30T02:03:27;100897.38;;;-3.54;66.49
60087;BME280;45960;53.630;55.972;2024-01-30T02:04:28;100891.28;;;-3.61;66.34
60087;BME280;45960;53.630;55.972;2024-01-30T02:05:29;100892.16;;;-3.63;66.65
60087;BME280;45960;53.630;55.972;2024-01-30T02:06:31;100899.09;;;-3.65;66.44
60087;BME280;45960;53.630;55.972;2024-01-30T02:07:33;100887.75;;;-3.70;66.47
60087;BME280;45960;53.630;55.972;2024-01-30T02:08:34;100894.72;;;-3.77;66.60
60087;BME280;45960;53.630;55.972;2024-01-30T02:09:36;100885.13;;;-3.79;66.83
60087;BME280;45960;53.630;55.972;2024-01-30T02:10:37;100885.13;;;-3.79;66.87
60087;BME280;45960;53.630;55.972;2024-01-30T02:11:39;100886.00;;;-3.80;67.10
60087;BME280;45960;53.630;55.972;2024-01-30T02:12:42;100890.34;;;-3.79;67.15
60087;BME280;45960;53.630;55.972;2024-01-30T02:13:43;100886.88;;;-3.78;67.24
60087;BME280;45960;53.630;55.972;2024-01-30T02:14:45;100869.47;;;-3.83;66.92
60087;BME280;45960;53.630;55.972;2024-01-30T02:15:51;100879.91;;;-3.76;67.23
60087;BME280;45960;53.630;55.972;2024-01-30T02:16:52;100879.91;;;-3.76;67.35
60087;BME280;45960;53.630;55.972;2024-01-30T02:17:53;100884.25;;;-3.75;67.07
60087;BME280;45960;53.630;55.972;2024-01-30T02:19:14;100881.69;;;-3.69;66.93
60087;BME280;45960;53.630;55.972;2024-01-30T02:20:15;100880.78;;;-3.70;66.85
60087;BME280;45960;53.630;55.972;2024-01-30T02:21:17;100876.47;;;-3.69;66.82
60087;BME280;45960;53.630;55.972;2024-01-30T02:22:20;100883.41;;;-3.68;66.69
60087;BME280;45960;53.630;55.972;2024-01-30T02:23:23;100878.19;;;-3.68;66.86
60087;BME280;45960;53.630;55.972;2024-01-30T02:24:25;100866.88;;;-3.69;66.81
60087;BME280;45960;53.630;55.972;2024-01-30T02:25:33;100874.69;;;-3.73;66.66
60087;BME280;45960;53.630;55.972;2024-01-30T02:26:34;100871.19;;;-3.75;66.81
60087;BME280;45960;53.630;55.972;2024-01-30T02:27:35;100872.06;;;-3.81;66.65
60087;BME280;45960;53.630;55.972;2024-01-30T02:28:37;100870.31;;;-3.85;67.05
60087;BME280;45960;53.630;55.972;2024-01-30T02:29:38;100877.28;;;-3.86;67.14
60087;BME280;45960;53.630;55.972;2024-01-30T02:30:40;100862.50;;;-3.84;67.19
60087;BME280;45960;53.630;55.972;2024-01-30T02:31:40;100872.97;;;-3.80;67.14
60087;BME280;45960;53.630;55.972;2024-01-30T02:32:42;100863.38;;;-3.75;67.07
60087;BME280;45960;53.630;55.972;2024-01-30T02:33:42;100871.19;;;-3.75;66.94
60087;BME280;45960;53.630;55.972;2024-01-30T02:34:43;100868.59;;;-3.75;66.88
60087;BME280;45960;53.630;55.972;2024-01-30T02:35:44;100833.75;;;-3.93;66.89
60087;BME280;45960;53.630;55.972;2024-01-30T02:36:46;100853.81;;;-3.76;66.85
60087;BME280;45960;53.630;55.972;2024-01-30T02:37:46;100857.28;;;-3.74;67.04
60087;BME280;45960;53.630;55.972;2024-01-30T02:38:47;100846.84;;;-3.74;67.14
60087;BME280;45960;53.630;55.972;2024-01-30T02:39:48;100848.59;;;-3.73;67.15
60087;BME280;45960;53.630;55.972;2024-01-30T02:40:49;100846.84;;;-3.77;67.28
60087;BME280;45960;53.630;55.972;2024-01-30T02:41:50;100846.84;;;-3.77;67.12
60087;BME280;45960;53.630;55.972;2024-01-30T02:42:52;100849.47;;;-3.74;67.14
60087;BME280;45960;53.630;55.972;2024-01-30T02:43:52;100852.06;;;-3.74;67.24
60087;BME280;45960;53.630;55.972;2024-01-30T02:44:53;100850.34;;;-3.72;67.20
60087;BME280;45960;53.630;55.972;2024-01-30T02:45:54;100849.47;;;-3.71;67.10
60087;BME280;45960;53.630;55.972;2024-01-30T02:46:55;100852.94;;;-3.71;67.20
60087;BME280;45960;53.630;55.972;2024-01-30T02:47:57;100852.94;;;-3.65;67.21
60087;BME280;45960;53.630;55.972;2024-01-30T02:48:58;100846.03;;;-3.61;67.19
60087;BME280;45960;53.630;55.972;2024-01-30T02:49:59;100848.63;;;-3.61;66.97
60087;BME280;45960;53.630;55.972;2024-01-30T02:51:00;100852.09;;;-3.65;67.06
60087;BME280;45960;53.630;55.972;2024-01-30T02:52:01;100846.00;;;-3.69;67.14
60087;BME280;45960;53.630;55.972;2024-01-30T02:53:02;100848.59;;;-3.70;67.17
60087;BME280;45960;53.630;55.972;2024-01-30T02:54:03;100851.22;;;-3.69;67.16
60087;BME280;45960;53.630;55.972;2024-01-30T02:55:04;100841.63;;;-3.65;67.23
60087;BME280;45960;53.630;55.972;2024-01-30T02:56:06;100845.13;;;-3.63;67.03
60087;BME280;45960;53.630;55.972;2024-01-30T02:57:10;100846.88;;;-3.62;67.10
60087;BME280;45960;53.630;55.972;2024-01-30T02:58:11;100838.16;;;-3.64;67.15
60087;BME280;45960;53.630;55.972;2024-01-30T02:59:12;100838.16;;;-3.64;66.96
60087;BME280;45960;53.630;55.972;2024-01-30T03:00:13;100833.81;;;-3.68;67.16
60087;BME280;45960;53.630;55.972;2024-01-30T03:01:15;100832.06;;;-3.72;67.07
60087;BME280;45960;53.630;55.972;2024-01-30T03:02:15;100834.66;;;-3.75;67.40
60087;BME280;45960;53.630;55.972;2024-01-30T03:03:16;100832.91;;;-3.76;67.42
60087;BME280;45960;53.630;55.972;2024-01-30T03:04:17;100831.19;;;-3.74;67.43
60087;BME280;45960;53.630;55.972;2024-01-30T03:05:18;100831.19;;;-3.74;67.39
60087;BME280;45960;53.630;55.972;2024-01-30T03:06:19;100826.81;;;-3.75;67.47
60087;BME280;45960;53.630;55.972;2024-01-30T03:07:21;100830.31;;;-3.75;67.51
60087;BME280;45960;53.630;55.972;2024-01-30T03:08:22;100826.84;;;-3.69;67.54
60087;BME280;45960;53.630;55.972;2024-01-30T03:09:22;100831.19;;;-3.70;67.36
60087;BME280;45960;53.630;55.972;2024-01-30T03:10:24;100816.41;;;-3.69;67.40
60087;BME280;45960;53.630;55.972;2024-01-30T03:11:25;100822.47;;;-3.70;67.37
60087;BME280;45960;53.630;55.972;2024-01-30T03:12:26;100818.13;;;-3.70;67.44
60087;BME280;45960;53.630;55.972;2024-01-30T03:13:27;100814.63;;;-3.70;67.74
60087;BME280;45960;53.630;55.972;2024-01-30T03:14:32;100815.50;;;-3.70;67.63
60087;BME280;45960;53.630;55.972;2024-01-30T03:15:33;100808.56;;;-3.72;67.62
60087;BME280;45960;53.630;55.972;2024-01-30T03:16:34;100814.66;;;-3.72;67.65
60087;BME280;45960;53.630;55.972;2024-01-30T03:17:35;100810.28;;;-3.74;67.57
60087;BME280;45960;53.630;55.972;2024-01-30T03:18:37;100812.91;;;-3.71;67.43
60087;BME280;45960;53.630;55.972;2024-01-30T03:19:38;100808.56;;;-3.69;67.38
60087;BME280;45960;53.630;55.972;2024-01-30T03:20:39;100813.78;;;-3.66;67.51
60087;BME280;45960;53.630;55.972;2024-01-30T03:21:40;100807.69;;;-3.65;67.38
60087;BME280;45960;53.630;55.972;2024-01-30T03:22:41;100805.06;;;-3.65;67.54
60087;BME280;45960;53.630;55.972;2024-01-30T03:23:42;100809.41;;;-3.64;67.51
60087;BME280;45960;53.630;55.972;2024-01-30T03:24:43;100800.75;;;-3.60;67.53
60087;BME280;45960;53.630;55.972;2024-01-30T03:25:44;100810.31;;;-3.56;67.39
60087;BME280;45960;53.630;55.972;2024-01-30T03:26:46;100806.84;;;-3.55;67.41
60087;BME280;45960;53.630;55.972;2024-01-30T03:27:47;100808.59;;;-3.52;67.29
60087;BME280;45960;53.630;55.972;2024-01-30T03:28:48;100794.63;;;-3.53;67.33
60087;BME280;45960;53.630;55.972;2024-01-30T03:29:49;100797.25;;;-3.56;67.17
60087;BME280;45960;53.630;55.972;2024-01-30T03:30:49;100795.50;;;-3.58;67.29
60087;BME280;45960;53.630;55.972;2024-01-30T03:31:51;100793.78;;;-3.60;67.43
60087;BME280;45960;53.630;55.972;2024-01-30T03:32:52;100792.91;;;-3.63;67.39
60087;BME280;45960;53.630;55.972;2024-01-30T03:33:53;100796.38;;;-3.67;67.64
60087;BME280;45960;53.630;55.972;2024-01-30T03:34:54;100790.28;;;-3.69;67.62
60087;BME280;45960;53.630;55.972;2024-01-30T03:35:55;100789.41;;;-3.71;67.54
60087;BME280;45960;53.630;55.972;2024-01-30T03:36:56;100789.41;;;-3.71;67.73
60087;BME280;45960;53.630;55.972;2024-01-30T03:37:57;100791.13;;;-3.70;67.71
60087;BME280;45960;53.630;55.972;2024-01-30T03:38:59;100789.41;;;-3.68;67.67
60087;BME280;45960;53.630;55.972;2024-01-30T03:40:00;100790.28;;;-3.68;67.74
60087;BME280;45960;53.630;55.972;2024-01-30T03:41:01;100792.91;;;-3.66;67.83
60087;BME280;45960;53.630;55.972;2024-01-30T03:42:02;100770.25;;;-3.73;67.69
60087;BME280;45960;53.630;55.972;2024-01-30T03:43:03;100785.91;;;-3.64;67.60
60087;BME280;45960;53.630;55.972;2024-01-30T03:44:06;100790.28;;;-3.62;67.66
60087;BME280;45960;53.630;55.972;2024-01-30T03:45:07;100784.19;;;-3.59;67.63
60087;BME280;45960;53.630;55.972;2024-01-30T03:46:08;100782.47;;;-3.60;67.63
60087;BME280;45960;53.630;55.972;2024-01-30T03:47:09;100775.50;;;-3.61;67.54
60087;BME280;45960;53.630;55.972;2024-01-30T03:48:10;100791.16;;;-3.61;67.65
60087;BME280;45960;53.630;55.972;2024-01-30T03:49:11;100785.91;;;-3.64;67.72
60087;BME280;45960;53.630;55.972;2024-01-30T03:50:12;100774.59;;;-3.68;67.59
60087;BME280;45960;53.630;55.972;2024-01-30T03:51:13;100777.22;;;-3.69;67.56
60087;BME280;45960;53.630;55.972;2024-01-30T03:52:17;100778.97;;;-3.68;67.73
60087;BME280;45960;53.630;55.972;2024-01-30T03:53:18;100780.72;;;-3.69;67.70
60087;BME280;45960;53.630;55.972;2024-01-30T03:54:19;100781.56;;;-3.68;67.97
60087;BME280;45960;53.630;55.972;2024-01-30T03:55:19;100783.31;;;-3.70;67.92
60087;BME280;45960;53.630;55.972;2024-01-30T03:56:21;100773.75;;;-3.68;67.90
60087;BME280;45960;53.630;55.972;2024-01-30T03:57:21;100778.97;;;-3.65;67.96
60087;BME280;45960;53.630;55.972;2024-01-30T03:58:23;100780.72;;;-3.63;67.96
60087;BME280;45960;53.630;55.972;2024-01-30T03:59:24;100780.72;;;-3.61;67.94
60087;BME280;45960;53.630;55.972;2024-01-30T04:00:25;100772.88;;;-3.63;67.85
60087;BME280;45960;53.630;55.972;2024-01-30T04:01:26;100768.53;;;-3.65;67.87
60087;BME280;45960;53.630;55.972;2024-01-30T04:02:27;100773.75;;;-3.68;68.03
60087;BME280;45960;53.630;55.972;2024-01-30T04:03:27;100770.25;;;-3.67;68.04
60087;BME280;45960;53.630;55.972;2024-01-30T04:04:28;100773.75;;;-3.65;68.11
60087;BME280;45960;53.630;55.972;2024-01-30T04:05:29;100780.69;;;-3.64;67.91
60087;BME280;45960;53.630;55.972;2024-01-30T04:06:30;100773.75;;;-3.65;68.02
60087;BME280;45960;53.630;55.972;2024-01-30T04:07:31;100764.19;;;-3.69;68.09
60087;BME280;45960;53.630;55.972;2024-01-30T04:08:32;100770.28;;;-3.61;67.94
60087;BME280;45960;53.630;55.972;2024-01-30T04:09:33;100772.00;;;-3.60;67.73
60087;BME280;45960;53.630;55.972;2024-01-30T04:10:34;100770.25;;;-3.60;67.89
60087;BME280;45960;53.630;55.972;2024-01-30T04:11:35;100769.41;;;-3.66;67.73
60087;BME280;45960;53.630;55.972;2024-01-30T04:12:36;100765.03;;;-3.73;67.80
60087;BME280;45960;53.630;55.972;2024-01-30T04:13:37;100772.00;;;-3.72;68.03
60087;BME280;45960;53.630;55.972;2024-01-30T04:14:39;100777.22;;;-3.72;68.00
60087;BME280;45960;53.630;55.972;2024-01-30T04:15:40;100773.75;;;-3.68;68.02
60087;BME280;45960;53.630;55.972;2024-01-30T04:16:41;100767.63;;;-3.70;67.96
60087;BME280;45960;53.630;55.972;2024-01-30T04:17:42;100765.03;;;-3.73;67.87
60087;BME280;45960;53.630;55.972;2024-01-30T04:18:43;100762.44;;;-3.75;67.94
60087;BME280;45960;53.630;55.972;2024-01-30T04:19:44;100763.28;;;-3.76;68.26
60087;BME280;45960;53.630;55.972;2024-01-30T04:20:45;100758.06;;;-3.74;68.28
60087;BME280;45960;53.630;55.972;2024-01-30T04:21:46;100757.19;;;-3.70;68.36
60087;BME280;45960;53.630;55.972;2024-01-30T04:22:47;100763.28;;;-3.62;68.35
60087;BME280;45960;53.630;55.972;2024-01-30T04:23:48;100758.06;;;-3.59;67.96
60087;BME280;45960;53.630;55.972;2024-01-30T04:24:49;100755.47;;;-3.57;67.81
60087;BME280;45960;53.630;55.972;2024-01-30T04:25:50;100759.81;;;-3.55;67.95
60087;BME280;45960;53.630;55.972;2024-01-30T04:26:51;100752.88;;;-3.47;67.90
60087;BME280;45960;53.630;55.972;2024-01-30T04:27:52;100758.06;;;-3.41;67.43
60087;BME280;45960;53.630;55.972;2024-01-30T04:28:53;100758.06;;;-3.41;67.38
60087;BME280;45960;53.630;55.972;2024-01-30T04:29:54;100752.00;;;-3.47;67.59
60087;BME280;45960;53.630;55.972;2024-01-30T04:30:55;100758.94;;;-3.51;67.64
60087;BME280;45960;53.630;55.972;2024-01-30T04:31:56;100755.47;;;-3.50;67.93
60087;BME280;45960;53.630;55.972;2024-01-30T04:32:57;100750.25;;;-3.48;67.79
60087;BME280;45960;53.630;55.972;2024-01-30T04:33:58;100749.38;;;-3.46;67.76
60087;BME280;45960;53.630;55.972;2024-01-30T04:34:59;100752.88;;;-3.47;67.76
60087;BME280;45960;53.630;55.972;2024-01-30T04:36:00;100751.97;;;-3.46;67.65
60087;BME280;45960;53.630;55.972;2024-01-30T04:37:02;100752.88;;;-3.47;67.63
60087;BME280;45960;53.630;55.972;2024-01-30T04:38:03;100758.06;;;-3.48;67.62
60087;BME280;45960;53.630;55.972;2024-01-30T04:39:04;100756.31;;;-3.48;67.66
60087;BME280;45960;53.630;55.972;2024-01-30T04:40:05;100756.31;;;-3.48;67.78
60087;BME280;45960;53.630;55.972;2024-01-30T04:41:07;100755.47;;;-3.45;67.54
60087;BME280;45960;53.630;55.972;2024-01-30T04:42:08;100751.09;;;-3.48;67.64
60087;BME280;45960;53.630;55.972;2024-01-30T04:43:09;100752.88;;;-3.47;67.51
60087;BME280;45960;53.630;55.972;2024-01-30T04:44:10;100747.66;;;-3.50;67.70
60087;BME280;45960;53.630;55.972;2024-01-30T04:45:12;100741.53;;;-3.50;67.60
60087;BME280;45960;53.630;55.972;2024-01-30T04:46:13;100744.16;;;-3.52;67.50
60087;BME280;45960;53.630;55.972;2024-01-30T04:47:14;100747.66;;;-3.50;67.59
60087;BME280;45960;53.630;55.972;2024-01-30T04:48:15;100749.38;;;-3.49;67.58
60087;BME280;45960;53.630;55.972;2024-01-30T04:49:16;100738.94;;;-3.52;67.55
60087;BME280;45960;53.630;55.972;2024-01-30T04:50:17;100740.66;;;-3.48;67.50
60087;BME280;45960;53.630;55.972;2024-01-30T04:51:19;100740.69;;;-3.42;67.64
60087;BME280;45960;53.630;55.972;2024-01-30T04:52:20;100745.91;;;-3.39;67.54
60087;BME280;45960;53.630;55.972;2024-01-30T04:53:21;100728.47;;;-3.38;67.28
60087;BME280;45960;53.630;55.972;2024-01-30T04:54:22;100745.91;;;-3.42;67.25
60087;BME280;45960;53.630;55.972;2024-01-30T04:55:23;100739.81;;;-3.47;67.29
60087;BME280;45960;53.630;55.972;2024-01-30T04:56:24;100716.28;;;-3.62;67.53
60087;BME280;45960;53.630;55.972;2024-01-30T04:57:25;100738.94;;;-3.47;67.51
60087;BME280;45960;53.630;55.972;2024-01-30T04:58:26;100738.06;;;-3.49;67.58
60087;BME280;45960;53.630;55.972;2024-01-30T04:59:27;100745.88;;;-3.48;67.66
60087;BME280;45960;53.630;55.972;2024-01-30T05:00:28;100745.00;;;-3.48;67.58
60087;BME280;45960;53.630;55.972;2024-01-30T05:01:29;100738.91;;;-3.43;67.64
60087;BME280;45960;53.630;55.972;2024-01-30T05:02:30;100735.41;;;-3.45;67.47
60087;BME280;45960;53.630;55.972;2024-01-30T05:03:34;100733.69;;;-3.46;67.59
60087;BME280;45960;53.630;55.972;2024-01-30T05:04:35;100739.81;;;-3.50;67.51
60087;BME280;45960;53.630;55.972;2024-01-30T05:05:36;100735.44;;;-3.51;67.59
60087;BME280;45960;53.630;55.972;2024-01-30T05:06:38;100738.94;;;-3.49;67.61
60087;BME280;45960;53.630;55.972;2024-01-30T05:07:41;100732.84;;;-3.42;67.65
60087;BME280;45960;53.630;55.972;2024-01-30T05:08:41;100736.28;;;-3.40;67.28
60087;BME280;45960;53.630;55.972;2024-01-30T05:09:43;100727.63;;;-3.42;67.23
60087;BME280;45960;53.630;55.972;2024-01-30T05:10:44;100742.41;;;-3.44;67.56
60087;BME280;45960;53.630;55.972;2024-01-30T05:11:45;100732.84;;;-3.42;67.52
60087;BME280;45960;53.630;55.972;2024-01-30T05:12:46;100737.19;;;-3.44;67.51
60087;BME280;45960;53.630;55.972;2024-01-30T05:13:47;100733.69;;;-3.40;67.58
60087;BME280;45960;53.630;55.972;2024-01-30T05:14:48;100730.19;;;-3.37;67.50
60087;BME280;45960;53.630;55.972;2024-01-30T05:15:49;100726.72;;;-3.38;67.39
60087;BME280;45960;53.630;55.972;2024-01-30T05:16:50;100730.22;;;-3.35;67.36